sensor_id;sensor_type;location;lat;lon;timestamp;P1;durP1;ratioP1;P2;durP2;ratioP2
45224;SDS011;30963;48.696;8.764;2022-09-14T00:00:31;3.75;;;3.40;;
45224;SDS011;30963;48.696;8.764;2022-09-14T00:02:57;3.60;;;3.30;;
45224;SDS011;30963;48.696;8.764;2022-09-14T00:05:23;4.30;;;4.00;;
45224;SDS011;30963;48.696;8.764;2022-09-14T00:07:49;3.65;;;3.40;;
45224;SDS011;30963;48.696;8.764;2022-09-14T00:10:15;4.53;;;3.47;;
45224;SDS011;30963;48.696;8.764;2022-09-14T00:12:41;3.72;;;3.30;;
45224;SDS011;30963;48.696;8.764;2022-09-14T00:15:07;3.80;;;3.35;;
45224;SDS011;30963;48.696;8.764;2022-09-14T00:17:33;3.90;;;3.53;;
45224;SDS011;30963;48.696;8.764;2022-09-14T00:19:59;3.88;;;3.20;;
45224;SDS011;30963;48.696;8.764;2022-09-14T00:22:26;5.85;;;3.40;;
45224;SDS011;30963;48.696;8.764;2022-09-14T00:24:52;4.20;;;3.78;;
45224;SDS011;30963;48.696;8.764;2022-09-14T00:27:20;3.35;;;3.15;;
45224;SDS011;30963;48.696;8.764;2022-09-14T00:29:48;3.42;;;3.10;;
45224;SDS011;30963;48.696;8.764;2022-09-14T00:32:14;4.50;;;3.22;;
45224;SDS011;30963;48.696;8.764;2022-09-14T00:34:40;3.88;;;3.35;;
45224;SDS011;30963;48.696;8.764;2022-09-14T00:37:06;3.40;;;3.13;;
45224;SDS011;30963;48.696;8.764;2022-09-14T00:39:32;5.10;;;3.38;;
45224;SDS011;30963;48.696;8.764;2022-09-14T00:42:01;3.42;;;3.13;;
45224;SDS011;30963;48.696;8.764;2022-09-14T00:46:56;3.78;;;3.47;;
45224;SDS011;30963;48.696;8.764;2022-09-14T00:49:24;4.75;;;3.15;;
45224;SDS011;30963;48.696;8.764;2022-09-14T00:54:19;4.18;;;3.40;;
45224;SDS011;30963;48.696;8.764;2022-09-14T00:56:47;5.40;;;3.40;;
45224;SDS011;30963;48.696;8.764;2022-09-14T00:59:19;3.97;;;3.33;;
45224;SDS011;30963;48.696;8.764;2022-09-14T01:01:46;3.03;;;2.90;;
45224;SDS011;30963;48.696;8.764;2022-09-14T01:04:13;3.75;;;3.45;;
45224;SDS011;30963;48.696;8.764;2022-09-14T01:06:44;3.40;;;3.10;;
45224;SDS011;30963;48.696;8.764;2022-09-14T01:14:47;5.38;;;3.85;;
45224;SDS011;30963;48.696;8.764;2022-09-14T01:17:23;6.95;;;4.75;;
45224;SDS011;30963;48.696;8.764;2022-09-14T01:22:17;8.70;;;5.68;;
45224;SDS011;30963;48.696;8.764;2022-09-14T01:24:47;7.80;;;4.43;;
45224;SDS011;30963;48.696;8.764;2022-09-14T01:29:51;10.70;;;4.50;;
45224;SDS011;30963;48.696;8.764;2022-09-14T01:32:31;8.48;;;4.55;;
45224;SDS011;30963;48.696;8.764;2022-09-14T01:35:03;6.50;;;4.40;;
45224;SDS011;30963;48.696;8.764;2022-09-14T01:42:41;5.10;;;4.60;;
45224;SDS011;30963;48.696;8.764;2022-09-14T01:45:10;5.35;;;4.85;;
45224;SDS011;30963;48.696;8.764;2022-09-14T01:47:49;5.07;;;4.68;;
45224;SDS011;30963;48.696;8.764;2022-09-14T01:50:19;6.38;;;4.43;;
45224;SDS011;30963;48.696;8.764;2022-09-14T01:52:51;4.80;;;4.30;;
45224;SDS011;30963;48.696;8.764;2022-09-14T01:55:19;6.07;;;4.75;;
45224;SDS011;30963;48.696;8.764;2022-09-14T01:57:49;5.70;;;5.20;;
45224;SDS011;30963;48.696;8.764;2022-09-14T02:00:17;6.43;;;4.70;;
45224;SDS011;30963;48.696;8.764;2022-09-14T02:03:03;6.68;;;5.00;;
45224;SDS011;30963;48.696;8.764;2022-09-14T02:07:59;5.13;;;4.72;;
45224;SDS011;30963;48.696;8.764;2022-09-14T02:10:25;5.32;;;4.60;;
45224;SDS011;30963;48.696;8.764;2022-09-14T02:12:56;6.35;;;5.10;;
45224;SDS011;30963;48.696;8.764;2022-09-14T02:15:22;5.30;;;4.80;;
45224;SDS011;30963;48.696;8.764;2022-09-14T02:17:52;5.43;;;4.93;;
45224;SDS011;30963;48.696;8.764;2022-09-14T02:20:26;7.78;;;5.10;;
45224;SDS011;30963;48.696;8.764;2022-09-14T02:22:56;6.60;;;4.80;;
45224;SDS011;30963;48.696;8.764;2022-09-14T02:25:22;5.10;;;4.70;;
45224;SDS011;30963;48.696;8.764;2022-09-14T02:27:48;5.38;;;4.97;;
45224;SDS011;30963;48.696;8.764;2022-09-14T02:30:16;5.72;;;5.22;;
45224;SDS011;30963;48.696;8.764;2022-09-14T02:35:37;5.72;;;5.10;;
45224;SDS011;30963;48.696;8.764;2022-09-14T02:38:10;5.38;;;4.90;;
45224;SDS011;30963;48.696;8.764;2022-09-14T02:40:58;5.22;;;4.82;;
45224;SDS011;30963;48.696;8.764;2022-09-14T02:43:45;5.60;;;5.10;;
45224;SDS011;30963;48.696;8.764;2022-09-14T02:48:51;5.60;;;5.07;;
45224;SDS011;30963;48.696;8.764;2022-09-14T02:54:10;7.28;;;5.97;;
45224;SDS011;30963;48.696;8.764;2022-09-14T02:56:38;5.70;;;5.22;;
45224;SDS011;30963;48.696;8.764;2022-09-14T02:59:04;6.53;;;5.85;;
45224;SDS011;30963;48.696;8.764;2022-09-14T03:01:30;6.28;;;5.68;;
45224;SDS011;30963;48.696;8.764;2022-09-14T03:03:56;7.30;;;6.28;;
45224;SDS011;30963;48.696;8.764;2022-09-14T03:06:22;6.40;;;5.90;;
45224;SDS011;30963;48.696;8.764;2022-09-14T03:08:48;6.65;;;6.05;;
45224;SDS011;30963;48.696;8.764;2022-09-14T03:11:17;6.30;;;5.63;;
45224;SDS011;30963;48.696;8.764;2022-09-14T03:13:43;7.65;;;6.18;;
45224;SDS011;30963;48.696;8.764;2022-09-14T03:16:12;6.07;;;5.47;;
45224;SDS011;30963;48.696;8.764;2022-09-14T03:18:39;6.30;;;5.55;;
45224;SDS011;30963;48.696;8.764;2022-09-14T03:21:06;6.22;;;5.63;;
45224;SDS011;30963;48.696;8.764;2022-09-14T03:23:37;5.78;;;5.28;;
45224;SDS011;30963;48.696;8.764;2022-09-14T03:26:07;5.63;;;5.13;;
45224;SDS011;30963;48.696;8.764;2022-09-14T03:28:34;6.57;;;5.50;;
45224;SDS011;30963;48.696;8.764;2022-09-14T03:31:00;7.57;;;4.95;;
45224;SDS011;30963;48.696;8.764;2022-09-14T03:33:26;5.43;;;4.93;;
45224;SDS011;30963;48.696;8.764;2022-09-14T03:35:52;5.28;;;4.45;;
45224;SDS011;30963;48.696;8.764;2022-09-14T03:38:18;5.53;;;4.95;;
45224;SDS011;30963;48.696;8.764;2022-09-14T03:40:45;5.95;;;5.15;;
45224;SDS011;30963;48.696;8.764;2022-09-14T03:43:12;6.80;;;5.20;;
45224;SDS011;30963;48.696;8.764;2022-09-14T03:45:38;5.78;;;4.65;;
45224;SDS011;30963;48.696;8.764;2022-09-14T03:48:04;5.45;;;4.55;;
45224;SDS011;30963;48.696;8.764;2022-09-14T03:50:31;5.28;;;4.82;;
45224;SDS011;30963;48.696;8.764;2022-09-14T03:52:57;5.30;;;4.80;;
45224;SDS011;30963;48.696;8.764;2022-09-14T03:55:23;5.82;;;4.20;;
45224;SDS011;30963;48.696;8.764;2022-09-14T03:57:52;5.32;;;4.93;;
45224;SDS011;30963;48.696;8.764;2022-09-14T04:00:18;5.53;;;4.85;;
45224;SDS011;30963;48.696;8.764;2022-09-14T04:02:44;5.18;;;4.68;;
45224;SDS011;30963;48.696;8.764;2022-09-14T04:05:12;5.70;;;4.80;;
45224;SDS011;30963;48.696;8.764;2022-09-14T04:07:38;5.18;;;4.68;;
45224;SDS011;30963;48.696;8.764;2022-09-14T04:10:05;4.97;;;4.57;;
45224;SDS011;30963;48.696;8.764;2022-09-14T04:12:35;5.80;;;5.20;;
45224;SDS011;30963;48.696;8.764;2022-09-14T04:15:01;7.13;;;5.13;;
45224;SDS011;30963;48.696;8.764;2022-09-14T04:17:27;5.65;;;4.97;;
45224;SDS011;30963;48.696;8.764;2022-09-14T04:19:53;5.95;;;5.45;;
45224;SDS011;30963;48.696;8.764;2022-09-14T04:22:19;5.22;;;4.72;;
45224;SDS011;30963;48.696;8.764;2022-09-14T04:24:45;6.93;;;5.47;;
45224;SDS011;30963;48.696;8.764;2022-09-14T04:27:11;6.18;;;5.57;;
45224;SDS011;30963;48.696;8.764;2022-09-14T04:29:40;5.30;;;4.80;;
45224;SDS011;30963;48.696;8.764;2022-09-14T04:32:06;5.03;;;4.60;;
45224;SDS011;30963;48.696;8.764;2022-09-14T04:34:33;5.70;;;5.20;;
45224;SDS011;30963;48.696;8.764;2022-09-14T04:36:59;5.60;;;5.20;;
45224;SDS011;30963;48.696;8.764;2022-09-14T04:39:25;6.47;;;5.20;;
45224;SDS011;30963;48.696;8.764;2022-09-14T04:41:51;5.60;;;5.20;;
45224;SDS011;30963;48.696;8.764;2022-09-14T04:44:17;5.45;;;4.82;;
45224;SDS011;30963;48.696;8.764;2022-09-14T04:46:43;5.75;;;5.25;;
45224;SDS011;30963;48.696;8.764;2022-09-14T04:49:12;5.63;;;5.10;;
45224;SDS011;30963;48.696;8.764;2022-09-14T04:51:40;5.70;;;5.15;;
45224;SDS011;30963;48.696;8.764;2022-09-14T04:54:06;6.43;;;5.50;;
45224;SDS011;30963;48.696;8.764;2022-09-14T04:56:35;5.70;;;4.93;;
45224;SDS011;30963;48.696;8.764;2022-09-14T04:59:01;5.70;;;5.20;;
45224;SDS011;30963;48.696;8.764;2022-09-14T05:01:29;6.13;;;5.40;;
45224;SDS011;30963;48.696;8.764;2022-09-14T05:03:55;7.82;;;5.65;;
45224;SDS011;30963;48.696;8.764;2022-09-14T05:06:22;6.03;;;5.53;;
45224;SDS011;30963;48.696;8.764;2022-09-14T05:08:49;8.48;;;5.60;;
45224;SDS011;30963;48.696;8.764;2022-09-14T05:11:16;6.38;;;5.78;;
45224;SDS011;30963;48.696;8.764;2022-09-14T05:13:43;6.40;;;5.80;;
45224;SDS011;30963;48.696;8.764;2022-09-14T05:18:35;7.13;;;6.53;;
45224;SDS011;30963;48.696;8.764;2022-09-14T05:21:04;7.10;;;6.43;;
45224;SDS011;30963;48.696;8.764;2022-09-14T05:23:30;6.65;;;6.05;;
45224;SDS011;30963;48.696;8.764;2022-09-14T05:25:59;7.25;;;6.40;;
45224;SDS011;30963;48.696;8.764;2022-09-14T05:28:25;7.38;;;6.68;;
45224;SDS011;30963;48.696;8.764;2022-09-14T05:30:52;6.15;;;5.65;;
45224;SDS011;30963;48.696;8.764;2022-09-14T05:33:18;6.70;;;6.13;;
45224;SDS011;30963;48.696;8.764;2022-09-14T05:35:44;6.45;;;5.93;;
45224;SDS011;30963;48.696;8.764;2022-09-14T05:38:10;6.38;;;5.78;;
45224;SDS011;30963;48.696;8.764;2022-09-14T05:40:36;7.32;;;6.50;;
45224;SDS011;30963;48.696;8.764;2022-09-14T05:43:05;7.18;;;6.55;;
45224;SDS011;30963;48.696;8.764;2022-09-14T05:45:33;6.63;;;5.90;;
45224;SDS011;30963;48.696;8.764;2022-09-14T05:48:02;6.57;;;6.05;;
45224;SDS011;30963;48.696;8.764;2022-09-14T05:50:29;7.07;;;6.40;;
45224;SDS011;30963;48.696;8.764;2022-09-14T05:52:56;6.25;;;5.75;;
45224;SDS011;30963;48.696;8.764;2022-09-14T05:55:24;8.88;;;5.55;;
45224;SDS011;30963;48.696;8.764;2022-09-14T05:57:50;7.43;;;6.05;;
45224;SDS011;30963;48.696;8.764;2022-09-14T06:00:17;7.20;;;5.95;;
45224;SDS011;30963;48.696;8.764;2022-09-14T06:02:46;7.68;;;6.20;;
45224;SDS011;30963;48.696;8.764;2022-09-14T06:05:12;7.03;;;6.32;;
45224;SDS011;30963;48.696;8.764;2022-09-14T06:07:41;6.20;;;5.60;;
45224;SDS011;30963;48.696;8.764;2022-09-14T06:10:07;5.97;;;5.50;;
45224;SDS011;30963;48.696;8.764;2022-09-14T06:12:33;7.32;;;6.13;;
45224;SDS011;30963;48.696;8.764;2022-09-14T06:14:59;6.70;;;6.15;;
45224;SDS011;30963;48.696;8.764;2022-09-14T06:17:25;7.15;;;5.57;;
45224;SDS011;30963;48.696;8.764;2022-09-14T06:19:51;6.88;;;6.22;;
45224;SDS011;30963;48.696;8.764;2022-09-14T06:22:19;6.03;;;5.53;;
45224;SDS011;30963;48.696;8.764;2022-09-14T06:24:45;9.05;;;5.88;;
45224;SDS011;30963;48.696;8.764;2022-09-14T06:27:11;6.30;;;5.70;;
45224;SDS011;30963;48.696;8.764;2022-09-14T06:29:37;6.70;;;6.10;;
45224;SDS011;30963;48.696;8.764;2022-09-14T06:32:03;6.25;;;5.15;;
45224;SDS011;30963;48.696;8.764;2022-09-14T06:34:29;7.13;;;6.15;;
45224;SDS011;30963;48.696;8.764;2022-09-14T06:36:58;6.00;;;5.40;;
45224;SDS011;30963;48.696;8.764;2022-09-14T06:39:23;6.13;;;5.63;;
45224;SDS011;30963;48.696;8.764;2022-09-14T06:41:49;6.40;;;5.90;;
45224;SDS011;30963;48.696;8.764;2022-09-14T06:44:21;6.30;;;5.75;;
45224;SDS011;30963;48.696;8.764;2022-09-14T06:46:47;5.95;;;5.40;;
45224;SDS011;30963;48.696;8.764;2022-09-14T06:49:13;6.82;;;5.80;;
45224;SDS011;30963;48.696;8.764;2022-09-14T06:51:44;5.70;;;5.30;;
45224;SDS011;30963;48.696;8.764;2022-09-14T06:54:12;6.95;;;5.97;;
45224;SDS011;30963;48.696;8.764;2022-09-14T06:56:39;6.07;;;5.57;;
45224;SDS011;30963;48.696;8.764;2022-09-14T06:59:06;6.43;;;5.82;;
45224;SDS011;30963;48.696;8.764;2022-09-14T07:01:33;8.73;;;5.57;;
45224;SDS011;30963;48.696;8.764;2022-09-14T07:03:59;6.53;;;5.72;;
45224;SDS011;30963;48.696;8.764;2022-09-14T07:06:28;5.43;;;5.05;;
45224;SDS011;30963;48.696;8.764;2022-09-14T07:08:57;6.10;;;5.68;;
45224;SDS011;30963;48.696;8.764;2022-09-14T07:11:26;6.38;;;5.57;;
45224;SDS011;30963;48.696;8.764;2022-09-14T07:13:53;5.45;;;4.95;;
45224;SDS011;30963;48.696;8.764;2022-09-14T07:16:22;5.43;;;4.93;;
45224;SDS011;30963;48.696;8.764;2022-09-14T07:18:51;7.15;;;4.93;;
45224;SDS011;30963;48.696;8.764;2022-09-14T07:21:17;6.43;;;5.05;;
45224;SDS011;30963;48.696;8.764;2022-09-14T07:23:45;6.43;;;5.45;;
45224;SDS011;30963;48.696;8.764;2022-09-14T07:26:18;5.18;;;4.78;;
45224;SDS011;30963;48.696;8.764;2022-09-14T07:28:45;5.75;;;5.20;;
45224;SDS011;30963;48.696;8.764;2022-09-14T07:31:18;6.93;;;5.03;;
45224;SDS011;30963;48.696;8.764;2022-09-14T07:33:49;8.88;;;4.60;;
45224;SDS011;30963;48.696;8.764;2022-09-14T07:36:16;5.43;;;4.80;;
45224;SDS011;30963;48.696;8.764;2022-09-14T07:38:42;4.63;;;4.22;;
45224;SDS011;30963;48.696;8.764;2022-09-14T07:41:08;6.10;;;4.20;;
45224;SDS011;30963;48.696;8.764;2022-09-14T07:43:34;4.93;;;4.38;;
45224;SDS011;30963;48.696;8.764;2022-09-14T07:46:03;4.68;;;4.20;;
45224;SDS011;30963;48.696;8.764;2022-09-14T07:48:30;4.63;;;4.20;;
45224;SDS011;30963;48.696;8.764;2022-09-14T07:51:07;4.72;;;4.10;;
45224;SDS011;30963;48.696;8.764;2022-09-14T07:53:34;4.32;;;3.95;;
45224;SDS011;30963;48.696;8.764;2022-09-14T07:56:02;5.15;;;3.83;;
45224;SDS011;30963;48.696;8.764;2022-09-14T07:58:29;5.53;;;3.72;;
45224;SDS011;30963;48.696;8.764;2022-09-14T08:00:58;4.55;;;3.75;;
45224;SDS011;30963;48.696;8.764;2022-09-14T08:03:25;4.68;;;3.83;;
45224;SDS011;30963;48.696;8.764;2022-09-14T08:06:02;4.45;;;3.92;;
45224;SDS011;30963;48.696;8.764;2022-09-14T08:08:30;5.93;;;4.15;;
45224;SDS011;30963;48.696;8.764;2022-09-14T08:11:06;5.00;;;4.32;;
45224;SDS011;30963;48.696;8.764;2022-09-14T08:13:35;5.40;;;3.75;;
45224;SDS011;30963;48.696;8.764;2022-09-14T08:16:01;4.78;;;3.70;;
45224;SDS011;30963;48.696;8.764;2022-09-14T08:18:30;4.30;;;3.90;;
45224;SDS011;30963;48.696;8.764;2022-09-14T08:21:01;5.50;;;3.95;;
45224;SDS011;30963;48.696;8.764;2022-09-14T08:23:29;4.65;;;4.22;;
45224;SDS011;30963;48.696;8.764;2022-09-14T08:25:55;6.22;;;3.85;;
45224;SDS011;30963;48.696;8.764;2022-09-14T08:28:26;4.78;;;3.70;;
45224;SDS011;30963;48.696;8.764;2022-09-14T08:30:52;4.60;;;3.50;;
45224;SDS011;30963;48.696;8.764;2022-09-14T08:33:18;6.15;;;4.00;;
45224;SDS011;30963;48.696;8.764;2022-09-14T08:35:46;4.50;;;4.10;;
45224;SDS011;30963;48.696;8.764;2022-09-14T08:38:12;5.28;;;4.13;;
45224;SDS011;30963;48.696;8.764;2022-09-14T08:40:41;4.53;;;3.50;;
45224;SDS011;30963;48.696;8.764;2022-09-14T08:43:11;5.07;;;4.00;;
45224;SDS011;30963;48.696;8.764;2022-09-14T08:45:40;7.75;;;3.78;;
45224;SDS011;30963;48.696;8.764;2022-09-14T08:48:08;6.82;;;3.55;;
45224;SDS011;30963;48.696;8.764;2022-09-14T08:50:42;4.13;;;3.38;;
45224;SDS011;30963;48.696;8.764;2022-09-14T08:53:11;3.67;;;3.08;;
45224;SDS011;30963;48.696;8.764;2022-09-14T08:55:51;4.97;;;3.20;;
45224;SDS011;30963;48.696;8.764;2022-09-14T09:00:48;6.18;;;3.30;;
45224;SDS011;30963;48.696;8.764;2022-09-14T09:03:35;4.40;;;3.55;;
45224;SDS011;30963;48.696;8.764;2022-09-14T09:11:35;4.05;;;3.63;;
45224;SDS011;30963;48.696;8.764;2022-09-14T09:14:03;4.05;;;3.72;;
45224;SDS011;30963;48.696;8.764;2022-09-14T09:16:32;5.07;;;3.30;;
45224;SDS011;30963;48.696;8.764;2022-09-14T09:19:00;7.50;;;3.60;;
45224;SDS011;30963;48.696;8.764;2022-09-14T09:21:32;5.28;;;3.33;;
45224;SDS011;30963;48.696;8.764;2022-09-14T09:24:04;4.18;;;3.65;;
45224;SDS011;30963;48.696;8.764;2022-09-14T09:26:40;3.97;;;3.58;;
45224;SDS011;30963;48.696;8.764;2022-09-14T09:29:07;3.88;;;3.58;;
45224;SDS011;30963;48.696;8.764;2022-09-14T09:31:34;3.70;;;3.40;;
45224;SDS011;30963;48.696;8.764;2022-09-14T09:34:01;5.57;;;3.53;;
45224;SDS011;30963;48.696;8.764;2022-09-14T09:36:40;3.97;;;3.40;;
45224;SDS011;30963;48.696;8.764;2022-09-14T09:39:06;6.68;;;3.28;;
45224;SDS011;30963;48.696;8.764;2022-09-14T09:41:42;4.07;;;3.20;;
45224;SDS011;30963;48.696;8.764;2022-09-14T09:44:08;3.63;;;2.90;;
45224;SDS011;30963;48.696;8.764;2022-09-14T09:46:37;5.32;;;3.00;;
45224;SDS011;30963;48.696;8.764;2022-09-14T09:49:13;3.88;;;3.20;;
45224;SDS011;30963;48.696;8.764;2022-09-14T09:51:42;3.60;;;3.00;;
45224;SDS011;30963;48.696;8.764;2022-09-14T09:59:19;4.50;;;2.90;;
45224;SDS011;30963;48.696;8.764;2022-09-14T10:01:46;3.08;;;2.78;;
45224;SDS011;30963;48.696;8.764;2022-09-14T10:06:45;6.00;;;3.05;;
45224;SDS011;30963;48.696;8.764;2022-09-14T10:09:21;3.92;;;3.30;;
45224;SDS011;30963;48.696;8.764;2022-09-14T10:11:55;5.30;;;3.30;;
45224;SDS011;30963;48.696;8.764;2022-09-14T10:14:22;4.50;;;2.85;;
45224;SDS011;30963;48.696;8.764;2022-09-14T10:16:51;4.35;;;2.75;;
45224;SDS011;30963;48.696;8.764;2022-09-14T10:19:21;5.50;;;2.97;;
45224;SDS011;30963;48.696;8.764;2022-09-14T10:24:34;5.30;;;2.95;;
45224;SDS011;30963;48.696;8.764;2022-09-14T10:27:00;4.25;;;2.92;;
45224;SDS011;30963;48.696;8.764;2022-09-14T10:32:04;4.55;;;2.95;;
45224;SDS011;30963;48.696;8.764;2022-09-14T10:34:32;3.33;;;3.03;;
45224;SDS011;30963;48.696;8.764;2022-09-14T10:37:06;4.85;;;3.15;;
45224;SDS011;30963;48.696;8.764;2022-09-14T10:39:38;5.00;;;3.00;;
45224;SDS011;30963;48.696;8.764;2022-09-14T10:49:38;3.60;;;3.00;;
45224;SDS011;30963;48.696;8.764;2022-09-14T10:52:31;6.03;;;3.10;;
45224;SDS011;30963;48.696;8.764;2022-09-14T10:55:17;3.22;;;2.88;;
45224;SDS011;30963;48.696;8.764;2022-09-14T10:57:56;3.20;;;2.90;;
45224;SDS011;30963;48.696;8.764;2022-09-14T11:00:24;5.38;;;3.13;;
45224;SDS011;30963;48.696;8.764;2022-09-14T11:03:10;4.50;;;3.08;;
45224;SDS011;30963;48.696;8.764;2022-09-14T11:05:39;4.53;;;3.30;;
45224;SDS011;30963;48.696;8.764;2022-09-14T11:21:04;4.40;;;2.75;;
45224;SDS011;30963;48.696;8.764;2022-09-14T11:23:41;5.43;;;2.70;;
45224;SDS011;30963;48.696;8.764;2022-09-14T11:29:01;3.17;;;2.53;;
45224;SDS011;30963;48.696;8.764;2022-09-14T11:31:36;3.22;;;2.92;;
45224;SDS011;30963;48.696;8.764;2022-09-14T11:36:49;6.47;;;3.25;;
45224;SDS011;30963;48.696;8.764;2022-09-14T11:39:19;5.55;;;3.28;;
45224;SDS011;30963;48.696;8.764;2022-09-14T11:47:08;4.90;;;3.05;;
45224;SDS011;30963;48.696;8.764;2022-09-14T11:52:17;3.72;;;3.10;;
45224;SDS011;30963;48.696;8.764;2022-09-14T11:54:48;5.25;;;3.20;;
45224;SDS011;30963;48.696;8.764;2022-09-14T11:57:27;3.15;;;2.80;;
45224;SDS011;30963;48.696;8.764;2022-09-14T11:59:54;3.55;;;3.25;;
45224;SDS011;30963;48.696;8.764;2022-09-14T12:12:39;6.22;;;3.47;;
45224;SDS011;30963;48.696;8.764;2022-09-14T12:26:43;4.57;;;4.15;;
45224;SDS011;30963;48.696;8.764;2022-09-14T12:28:39;5.82;;;4.40;;
45224;SDS011;30963;48.696;8.764;2022-09-14T12:31:28;4.40;;;4.00;;
45224;SDS011;30963;48.696;8.764;2022-09-14T12:46:56;6.00;;;4.10;;
45224;SDS011;30963;48.696;8.764;2022-09-14T12:49:29;4.72;;;3.90;;
45224;SDS011;30963;48.696;8.764;2022-09-14T12:51:56;4.53;;;3.45;;
45224;SDS011;30963;48.696;8.764;2022-09-14T12:54:33;3.38;;;3.05;;
45224;SDS011;30963;48.696;8.764;2022-09-14T12:57:08;3.90;;;3.38;;
45224;SDS011;30963;48.696;8.764;2022-09-14T13:04:53;5.88;;;3.63;;
45224;SDS011;30963;48.696;8.764;2022-09-14T13:07:20;7.05;;;3.53;;
45224;SDS011;30963;48.696;8.764;2022-09-14T13:09:50;6.28;;;2.92;;
45224;SDS011;30963;48.696;8.764;2022-09-14T13:12:37;4.75;;;3.22;;
45224;SDS011;30963;48.696;8.764;2022-09-14T13:15:13;5.13;;;3.03;;
45224;SDS011;30963;48.696;8.764;2022-09-14T13:17:54;6.57;;;3.40;;
45224;SDS011;30963;48.696;8.764;2022-09-14T13:20:20;4.82;;;3.17;;
45224;SDS011;30963;48.696;8.764;2022-09-14T13:22:46;6.32;;;3.20;;
45224;SDS011;30963;48.696;8.764;2022-09-14T13:25:24;4.32;;;2.90;;
45224;SDS011;30963;48.696;8.764;2022-09-14T13:27:52;5.55;;;3.20;;
45224;SDS011;30963;48.696;8.764;2022-09-14T13:30:20;3.90;;;2.90;;
45224;SDS011;30963;48.696;8.764;2022-09-14T13:32:48;4.97;;;3.00;;
45224;SDS011;30963;48.696;8.764;2022-09-14T13:35:34;2.67;;;2.35;;
45224;SDS011;30963;48.696;8.764;2022-09-14T13:38:05;3.17;;;2.80;;
45224;SDS011;30963;48.696;8.764;2022-09-14T13:40:32;3.15;;;2.80;;
45224;SDS011;30963;48.696;8.764;2022-09-14T13:42:58;4.25;;;2.55;;
45224;SDS011;30963;48.696;8.764;2022-09-14T13:45:27;2.90;;;2.67;;
45224;SDS011;30963;48.696;8.764;2022-09-14T13:47:53;3.78;;;2.67;;
45224;SDS011;30963;48.696;8.764;2022-09-14T13:50:21;3.25;;;2.78;;
45224;SDS011;30963;48.696;8.764;2022-09-14T13:52:49;2.88;;;2.55;;
45224;SDS011;30963;48.696;8.764;2022-09-14T14:00:28;4.13;;;2.35;;
45224;SDS011;30963;48.696;8.764;2022-09-14T14:03:02;3.63;;;2.47;;
45224;SDS011;30963;48.696;8.764;2022-09-14T14:05:30;2.63;;;2.30;;
45224;SDS011;30963;48.696;8.764;2022-09-14T14:07:59;4.20;;;2.20;;
45224;SDS011;30963;48.696;8.764;2022-09-14T14:10:46;2.97;;;2.20;;
45224;SDS011;30963;48.696;8.764;2022-09-14T14:13:23;2.25;;;2.05;;
45224;SDS011;30963;48.696;8.764;2022-09-14T14:15:49;3.88;;;2.40;;
45224;SDS011;30963;48.696;8.764;2022-09-14T14:21:11;2.08;;;1.98;;
45224;SDS011;30963;48.696;8.764;2022-09-14T14:23:38;2.75;;;1.95;;
45224;SDS011;30963;48.696;8.764;2022-09-14T14:26:07;2.30;;;2.10;;
45224;SDS011;30963;48.696;8.764;2022-09-14T14:28:34;2.22;;;1.92;;
45224;SDS011;30963;48.696;8.764;2022-09-14T14:31:00;4.18;;;2.00;;
45224;SDS011;30963;48.696;8.764;2022-09-14T14:33:26;3.15;;;2.10;;
45224;SDS011;30963;48.696;8.764;2022-09-14T14:35:53;2.38;;;2.17;;
45224;SDS011;30963;48.696;8.764;2022-09-14T14:38:22;2.38;;;2.17;;
45224;SDS011;30963;48.696;8.764;2022-09-14T14:40:49;2.22;;;1.88;;
45224;SDS011;30963;48.696;8.764;2022-09-14T14:43:16;2.17;;;1.98;;
45224;SDS011;30963;48.696;8.764;2022-09-14T14:45:45;3.33;;;1.92;;
45224;SDS011;30963;48.696;8.764;2022-09-14T14:48:12;3.38;;;2.15;;
45224;SDS011;30963;48.696;8.764;2022-09-14T14:50:38;2.17;;;2.08;;
45224;SDS011;30963;48.696;8.764;2022-09-14T14:53:04;1.95;;;1.83;;
45224;SDS011;30963;48.696;8.764;2022-09-14T14:55:30;1.88;;;1.70;;
45224;SDS011;30963;48.696;8.764;2022-09-14T14:57:57;2.25;;;1.85;;
45224;SDS011;30963;48.696;8.764;2022-09-14T15:00:26;2.08;;;1.98;;
45224;SDS011;30963;48.696;8.764;2022-09-14T15:02:53;1.80;;;1.70;;
45224;SDS011;30963;48.696;8.764;2022-09-14T15:05:19;2.03;;;1.90;;
45224;SDS011;30963;48.696;8.764;2022-09-14T15:07:45;1.80;;;1.70;;
45224;SDS011;30963;48.696;8.764;2022-09-14T15:10:14;1.85;;;1.70;;
45224;SDS011;30963;48.696;8.764;2022-09-14T15:12:40;3.22;;;1.90;;
45224;SDS011;30963;48.696;8.764;2022-09-14T15:15:16;3.25;;;2.00;;
45224;SDS011;30963;48.696;8.764;2022-09-14T15:17:45;1.63;;;1.52;;
45224;SDS011;30963;48.696;8.764;2022-09-14T15:20:12;2.10;;;1.90;;
45224;SDS011;30963;48.696;8.764;2022-09-14T15:22:38;2.50;;;1.70;;
45224;SDS011;30963;48.696;8.764;2022-09-14T15:25:06;2.17;;;1.70;;
45224;SDS011;30963;48.696;8.764;2022-09-14T15:27:32;2.03;;;1.83;;
45224;SDS011;30963;48.696;8.764;2022-09-14T15:30:00;2.20;;;2.00;;
45224;SDS011;30963;48.696;8.764;2022-09-14T15:32:27;2.22;;;2.08;;
45224;SDS011;30963;48.696;8.764;2022-09-14T15:34:53;2.70;;;2.20;;
45224;SDS011;30963;48.696;8.764;2022-09-14T15:37:19;2.03;;;1.70;;
45224;SDS011;30963;48.696;8.764;2022-09-14T15:39:45;2.15;;;1.83;;
45224;SDS011;30963;48.696;8.764;2022-09-14T15:42:12;3.08;;;2.33;;
45224;SDS011;30963;48.696;8.764;2022-09-14T15:44:38;4.25;;;2.50;;
45224;SDS011;30963;48.696;8.764;2022-09-14T15:47:04;2.63;;;2.10;;
45224;SDS011;30963;48.696;8.764;2022-09-14T15:49:30;4.38;;;2.45;;
45224;SDS011;30963;48.696;8.764;2022-09-14T15:51:56;2.95;;;1.90;;
45224;SDS011;30963;48.696;8.764;2022-09-14T15:54:23;2.67;;;2.08;;
45224;SDS011;30963;48.696;8.764;2022-09-14T15:56:50;2.42;;;2.22;;
45224;SDS011;30963;48.696;8.764;2022-09-14T15:59:17;2.78;;;2.50;;
45224;SDS011;30963;48.696;8.764;2022-09-14T16:01:43;3.08;;;2.50;;
45224;SDS011;30963;48.696;8.764;2022-09-14T16:04:09;3.58;;;2.60;;
45224;SDS011;30963;48.696;8.764;2022-09-14T16:06:38;2.72;;;2.40;;
45224;SDS011;30963;48.696;8.764;2022-09-14T16:09:06;2.72;;;2.53;;
45224;SDS011;30963;48.696;8.764;2022-09-14T16:11:32;2.70;;;2.38;;
45224;SDS011;30963;48.696;8.764;2022-09-14T16:13:58;3.10;;;2.15;;
45224;SDS011;30963;48.696;8.764;2022-09-14T16:16:24;3.47;;;2.47;;
45224;SDS011;30963;48.696;8.764;2022-09-14T16:18:51;4.80;;;2.50;;
45224;SDS011;30963;48.696;8.764;2022-09-14T16:21:25;2.40;;;2.25;;
45224;SDS011;30963;48.696;8.764;2022-09-14T16:23:52;2.72;;;2.53;;
45224;SDS011;30963;48.696;8.764;2022-09-14T16:26:20;2.72;;;2.45;;
45224;SDS011;30963;48.696;8.764;2022-09-14T16:28:47;2.75;;;2.15;;
45224;SDS011;30963;48.696;8.764;2022-09-14T16:31:14;2.83;;;2.40;;
45224;SDS011;30963;48.696;8.764;2022-09-14T16:33:41;3.67;;;2.10;;
45224;SDS011;30963;48.696;8.764;2022-09-14T16:36:11;5.97;;;2.90;;
45224;SDS011;30963;48.696;8.764;2022-09-14T16:38:37;4.30;;;3.17;;
45224;SDS011;30963;48.696;8.764;2022-09-14T16:41:04;3.72;;;2.42;;
45224;SDS011;30963;48.696;8.764;2022-09-14T16:43:31;2.45;;;2.22;;
45224;SDS011;30963;48.696;8.764;2022-09-14T16:48:26;3.70;;;2.30;;
45224;SDS011;30963;48.696;8.764;2022-09-14T16:50:52;2.58;;;2.38;;
45224;SDS011;30963;48.696;8.764;2022-09-14T16:53:21;4.18;;;2.30;;
45224;SDS011;30963;48.696;8.764;2022-09-14T16:55:47;5.00;;;2.80;;
45224;SDS011;30963;48.696;8.764;2022-09-14T16:58:13;2.83;;;2.42;;
45224;SDS011;30963;48.696;8.764;2022-09-14T17:00:39;3.30;;;2.70;;
45224;SDS011;30963;48.696;8.764;2022-09-14T17:03:09;3.75;;;2.45;;
45224;SDS011;30963;48.696;8.764;2022-09-14T17:05:35;2.63;;;2.33;;
45224;SDS011;30963;48.696;8.764;2022-09-14T17:08:01;3.83;;;2.63;;
45224;SDS011;30963;48.696;8.764;2022-09-14T17:10:27;6.93;;;3.10;;
45224;SDS011;30963;48.696;8.764;2022-09-14T17:12:57;2.45;;;2.25;;
45224;SDS011;30963;48.696;8.764;2022-09-14T17:15:23;3.85;;;2.47;;